RYR7JU EKCH-EGSS
Flight info
| Callsign | RYR7JU |
|---|---|
| Flight time | 1h 27m |
| Altitude | 36000 |
| Route | LANGO DCT KESUR DCT LONAM DCT BINBO DCT AKOKO N866 KUBAX Z150 MEGEL |
| Aircraft | A320/M-SDE3FGHIRWY/LB1 |
Departure
| Time | 2026-05-03 20:47 |
|---|---|
| Airport | Copenhagen Kastrup Airport (EKCH) |
Arrival
| Time | 2026-05-03 22:15 |
|---|---|
| Airport | London Stansted Airport (EGSS) |
| Time | Latitude | Longitude | Altitude | Speed | Heading |
|---|---|---|---|---|---|
| 2026-05-03 20:28 | 55.62531 | 12.65760 | 26 ft | 0 kts | 359° |
| 2026-05-03 20:39 | 55.62515 | 12.65760 | 24 ft | 4 kts | 359° |
| 2026-05-03 20:39 | 55.62473 | 12.65762 | 24 ft | 7 kts | 359° |
| 2026-05-03 20:39 | 55.62444 | 12.65716 | 28 ft | 7 kts | 87° |
| 2026-05-03 20:40 | 55.62446 | 12.65631 | 28 ft | 7 kts | 88° |
| 2026-05-03 20:40 | 55.62444 | 12.65548 | 27 ft | 7 kts | 88° |
| 2026-05-03 20:40 | 55.62442 | 12.65463 | 27 ft | 7 kts | 88° |
| 2026-05-03 20:40 | 55.62440 | 12.65381 | 24 ft | 7 kts | 92° |
| 2026-05-03 20:41 | 55.62468 | 12.65324 | 25 ft | 7 kts | 177° |
| 2026-05-03 20:41 | 55.62477 | 12.65324 | 24 ft | 0 kts | 173° |
| 2026-05-03 20:41 | 55.62472 | 12.65325 | 25 ft | 1 kts | 173° |
| 2026-05-03 20:41 | 55.62459 | 12.65328 | 25 ft | 3 kts | 174° |
| 2026-05-03 20:42 | 55.62436 | 12.65328 | 27 ft | 4 kts | 181° |
| 2026-05-03 20:42 | 55.62379 | 12.65330 | 24 ft | 13 kts | 179° |
| 2026-05-03 20:42 | 55.62299 | 12.65293 | 26 ft | 11 kts | 238° |
| 2026-05-03 20:42 | 55.62295 | 12.65195 | 26 ft | 8 kts | 224° |
| 2026-05-03 20:43 | 55.62298 | 12.65020 | 24 ft | 13 kts | 302° |
| 2026-05-03 20:43 | 55.62349 | 12.64864 | 25 ft | 16 kts | 288° |
| 2026-05-03 20:43 | 55.62320 | 12.64671 | 24 ft | 18 kts | 248° |
| 2026-05-03 20:43 | 55.62270 | 12.64472 | 23 ft | 14 kts | 243° |
| 2026-05-03 20:44 | 55.62195 | 12.64341 | 22 ft | 17 kts | 206° |
| 2026-05-03 20:44 | 55.62089 | 12.64252 | 24 ft | 18 kts | 206° |
| 2026-05-03 20:44 | 55.61983 | 12.64161 | 24 ft | 16 kts | 205° |
| 2026-05-03 20:44 | 55.61877 | 12.64076 | 24 ft | 18 kts | 198° |
| 2026-05-03 20:45 | 55.61748 | 12.64082 | 26 ft | 20 kts | 175° |
| 2026-05-03 20:45 | 55.61636 | 12.64077 | 27 ft | 13 kts | 205° |
| 2026-05-03 20:45 | 55.61598 | 12.64025 | 27 ft | 2 kts | 219° |
| 2026-05-03 20:45 | 55.61593 | 12.64018 | 27 ft | 0 kts | 219° |
| 2026-05-03 20:46 | 55.61586 | 12.64008 | 26 ft | 3 kts | 220° |
| 2026-05-03 20:46 | 55.61495 | 12.63868 | 28 ft | 48 kts | 221° |
| 2026-05-03 20:46 | 55.61066 | 12.63202 | 27 ft | 112 kts | 220° |
| 2026-05-03 20:46 | 55.60351 | 12.62082 | 26 ft | 160 kts | 223° |
| 2026-05-03 20:47 | 55.59441 | 12.60743 | 384 ft | 173 kts | 220° |
| 2026-05-03 20:47 | 55.58554 | 12.59423 | 1116 ft | 163 kts | 218° |
| 2026-05-03 20:47 | 55.57647 | 12.58015 | 1315 ft | 185 kts | 219° |
| 2026-05-03 20:47 | 55.56640 | 12.56388 | 1479 ft | 208 kts | 227° |
| 2026-05-03 20:48 | 55.55933 | 12.54019 | 1624 ft | 232 kts | 248° |
| 2026-05-03 20:48 | 55.55222 | 12.51321 | 1824 ft | 251 kts | 243° |
| 2026-05-03 20:48 | 55.54604 | 12.48389 | 2327 ft | 256 kts | 250° |
| 2026-05-03 20:48 | 55.54113 | 12.45384 | 2946 ft | 257 kts | 251° |
| 2026-05-03 20:49 | 55.53659 | 12.42332 | 3570 ft | 257 kts | 251° |
| 2026-05-03 20:49 | 55.53217 | 12.39289 | 4212 ft | 255 kts | 251° |
| 2026-05-03 20:49 | 55.52770 | 12.36268 | 4831 ft | 254 kts | 251° |
| 2026-05-03 20:49 | 55.52314 | 12.33263 | 5418 ft | 253 kts | 251° |
| 2026-05-03 20:50 | 55.51850 | 12.30274 | 6017 ft | 252 kts | 251° |
| 2026-05-03 20:50 | 55.51382 | 12.27304 | 6598 ft | 253 kts | 251° |
| 2026-05-03 20:50 | 55.50914 | 12.24360 | 7466 ft | 254 kts | 250° |
| 2026-05-03 20:50 | 55.50435 | 12.21350 | 8333 ft | 257 kts | 250° |
| 2026-05-03 20:51 | 55.49947 | 12.18298 | 9186 ft | 260 kts | 251° |
| 2026-05-03 20:51 | 55.49452 | 12.15216 | 9977 ft | 263 kts | 250° |
| 2026-05-03 20:51 | 55.48928 | 12.11989 | 10273 ft | 285 kts | 251° |
| 2026-05-03 20:51 | 55.48363 | 12.08515 | 10638 ft | 300 kts | 251° |
| 2026-05-03 20:52 | 55.47783 | 12.04945 | 11279 ft | 306 kts | 251° |
| 2026-05-03 20:52 | 55.47196 | 12.01309 | 11990 ft | 309 kts | 251° |
| 2026-05-03 20:52 | 55.46608 | 11.97647 | 12705 ft | 313 kts | 251° |
| 2026-05-03 20:52 | 55.46010 | 11.93937 | 13423 ft | 316 kts | 251° |
| 2026-05-03 20:53 | 55.45405 | 11.90204 | 14073 ft | 319 kts | 251° |
| 2026-05-03 20:53 | 55.44791 | 11.86427 | 14700 ft | 322 kts | 251° |
| 2026-05-03 20:53 | 55.44166 | 11.82604 | 15304 ft | 326 kts | 251° |
| 2026-05-03 20:53 | 55.43536 | 11.78756 | 15912 ft | 329 kts | 251° |
| 2026-05-03 20:54 | 55.43114 | 11.76179 | 16309 ft | 331 kts | 251° |
| 2026-05-03 20:54 | 55.41596 | 11.66973 | 17723 ft | 339 kts | 252° |
| 2026-05-03 20:54 | 55.40929 | 11.62971 | 18304 ft | 343 kts | 252° |
| 2026-05-03 20:55 | 55.40257 | 11.58938 | 18847 ft | 346 kts | 252° |
| 2026-05-03 20:55 | 55.39579 | 11.54856 | 19406 ft | 349 kts | 252° |
| 2026-05-03 20:55 | 55.38897 | 11.50751 | 19975 ft | 351 kts | 251° |
| 2026-05-03 20:55 | 55.38208 | 11.46615 | 20527 ft | 354 kts | 251° |
| 2026-05-03 20:56 | 55.37747 | 11.43850 | 20875 ft | 356 kts | 251° |
| 2026-05-03 20:56 | 55.37044 | 11.39652 | 21419 ft | 359 kts | 251° |
| 2026-05-03 20:56 | 55.36102 | 11.34046 | 22125 ft | 363 kts | 251° |
| 2026-05-03 20:56 | 55.35617 | 11.31168 | 22478 ft | 365 kts | 251° |
| 2026-05-03 20:57 | 55.34893 | 11.26870 | 23013 ft | 368 kts | 251° |
| 2026-05-03 20:57 | 55.34164 | 11.22542 | 23520 ft | 371 kts | 251° |
| 2026-05-03 20:57 | 55.33191 | 11.16824 | 24092 ft | 374 kts | 251° |
| 2026-05-03 20:57 | 55.32685 | 11.13858 | 24392 ft | 376 kts | 251° |
| 2026-05-03 20:58 | 55.31931 | 11.09445 | 24838 ft | 378 kts | 250° |
| 2026-05-03 20:58 | 55.31175 | 11.05013 | 25257 ft | 381 kts | 250° |
| 2026-05-03 20:58 | 55.30413 | 11.00551 | 25676 ft | 383 kts | 250° |
| 2026-05-03 20:58 | 55.29644 | 10.96070 | 26088 ft | 385 kts | 250° |
| 2026-05-03 20:59 | 55.28867 | 10.91570 | 26470 ft | 387 kts | 250° |
| 2026-05-03 20:59 | 55.28080 | 10.87030 | 26854 ft | 389 kts | 250° |
| 2026-05-03 20:59 | 55.27290 | 10.82472 | 27236 ft | 391 kts | 250° |
| 2026-05-03 20:59 | 55.26497 | 10.77906 | 27613 ft | 393 kts | 250° |
| 2026-05-03 21:00 | 55.25695 | 10.73303 | 27999 ft | 395 kts | 249° |
| 2026-05-03 21:00 | 55.25160 | 10.70247 | 28253 ft | 397 kts | 249° |
| 2026-05-03 21:00 | 55.24082 | 10.64109 | 28744 ft | 399 kts | 249° |
| 2026-05-03 21:00 | 55.23252 | 10.59381 | 29114 ft | 402 kts | 249° |
| 2026-05-03 21:01 | 55.22439 | 10.54759 | 29480 ft | 404 kts | 249° |
| 2026-05-03 21:01 | 55.21609 | 10.50051 | 29839 ft | 406 kts | 249° |
| 2026-05-03 21:01 | 55.20771 | 10.45320 | 30161 ft | 408 kts | 249° |
| 2026-05-03 21:01 | 55.19929 | 10.40564 | 30492 ft | 409 kts | 249° |
| 2026-05-03 21:02 | 55.19082 | 10.35798 | 30814 ft | 410 kts | 249° |
| 2026-05-03 21:02 | 55.18236 | 10.31046 | 31254 ft | 408 kts | 249° |
| 2026-05-03 21:02 | 55.17396 | 10.26315 | 31746 ft | 406 kts | 249° |
| 2026-05-03 21:02 | 55.16560 | 10.21622 | 32232 ft | 403 kts | 249° |
| 2026-05-03 21:03 | 55.15721 | 10.16955 | 32725 ft | 401 kts | 249° |
| 2026-05-03 21:03 | 55.14885 | 10.12321 | 33221 ft | 398 kts | 249° |
| 2026-05-03 21:03 | 55.14055 | 10.07722 | 33716 ft | 396 kts | 249° |
| 2026-05-03 21:03 | 55.13230 | 10.03147 | 34148 ft | 394 kts | 249° |
| 2026-05-03 21:04 | 55.12407 | 9.98591 | 34508 ft | 393 kts | 249° |
| 2026-05-03 21:04 | 55.11583 | 9.94040 | 34820 ft | 393 kts | 249° |
| 2026-05-03 21:04 | 55.10752 | 9.89484 | 35113 ft | 394 kts | 248° |
| 2026-05-03 21:04 | 55.09916 | 9.84944 | 35399 ft | 394 kts | 249° |
| 2026-05-03 21:05 | 55.09081 | 9.80400 | 35680 ft | 394 kts | 249° |
| 2026-05-03 21:05 | 55.08244 | 9.75842 | 35831 ft | 395 kts | 249° |
| 2026-05-03 21:05 | 55.06560 | 9.66701 | 35864 ft | 395 kts | 249° |
| 2026-05-03 21:06 | 55.04875 | 9.57598 | 35862 ft | 395 kts | 249° |
| 2026-05-03 21:06 | 55.03192 | 9.48543 | 35860 ft | 395 kts | 249° |
| 2026-05-03 21:07 | 55.01494 | 9.39441 | 35858 ft | 395 kts | 249° |
| 2026-05-03 21:07 | 54.99782 | 9.30344 | 35884 ft | 395 kts | 249° |
| 2026-05-03 21:08 | 54.98066 | 9.21243 | 35880 ft | 396 kts | 249° |
| 2026-05-03 21:08 | 54.96336 | 9.12114 | 35877 ft | 396 kts | 248° |
| 2026-05-03 21:09 | 54.94599 | 9.03048 | 35872 ft | 396 kts | 248° |
| 2026-05-03 21:09 | 54.92859 | 8.93973 | 35853 ft | 396 kts | 248° |
| 2026-05-03 21:10 | 54.91114 | 8.84876 | 35852 ft | 397 kts | 248° |
| 2026-05-03 21:10 | 54.89357 | 8.75791 | 35856 ft | 397 kts | 248° |
| 2026-05-03 21:11 | 54.87567 | 8.66580 | 35850 ft | 410 kts | 248° |
| 2026-05-03 21:11 | 54.85716 | 8.57087 | 35857 ft | 418 kts | 248° |
| 2026-05-03 21:12 | 54.83841 | 8.47520 | 35861 ft | 419 kts | 248° |
| 2026-05-03 21:12 | 54.81951 | 8.37968 | 35859 ft | 419 kts | 248° |
| 2026-05-03 21:13 | 54.80057 | 8.28413 | 35859 ft | 419 kts | 248° |
| 2026-05-03 21:13 | 54.78170 | 8.18922 | 35872 ft | 420 kts | 248° |
| 2026-05-03 21:14 | 54.76260 | 8.09369 | 35901 ft | 420 kts | 248° |
| 2026-05-03 21:14 | 54.74336 | 7.99816 | 35887 ft | 420 kts | 248° |
| 2026-05-03 21:15 | 54.72403 | 7.90264 | 35885 ft | 421 kts | 248° |
| 2026-05-03 21:15 | 54.70468 | 7.80697 | 35890 ft | 421 kts | 248° |
| 2026-05-03 21:16 | 54.68524 | 7.71144 | 35896 ft | 421 kts | 248° |
| 2026-05-03 21:16 | 54.66570 | 7.61611 | 35899 ft | 421 kts | 248° |
| 2026-05-03 21:17 | 54.64937 | 7.53682 | 35923 ft | 422 kts | 248° |
| 2026-05-03 21:17 | 54.62628 | 7.42523 | 35911 ft | 423 kts | 248° |
| 2026-05-03 21:18 | 54.60636 | 7.32968 | 35915 ft | 423 kts | 248° |
| 2026-05-03 21:18 | 54.58645 | 7.23418 | 35913 ft | 423 kts | 248° |
| 2026-05-03 21:19 | 54.56646 | 7.13872 | 35911 ft | 424 kts | 248° |
| 2026-05-03 21:19 | 54.54631 | 7.04330 | 35903 ft | 424 kts | 247° |
| 2026-05-03 21:20 | 54.52613 | 6.94786 | 35924 ft | 425 kts | 248° |
| 2026-05-03 21:20 | 54.50579 | 6.85225 | 35917 ft | 426 kts | 248° |
| 2026-05-03 21:21 | 54.48540 | 6.75715 | 35918 ft | 427 kts | 248° |
| 2026-05-03 21:21 | 54.46482 | 6.66139 | 35920 ft | 427 kts | 248° |
| 2026-05-03 21:22 | 54.44416 | 6.56573 | 35911 ft | 427 kts | 247° |
| 2026-05-03 21:22 | 54.42341 | 6.47007 | 35915 ft | 427 kts | 247° |
| 2026-05-03 21:23 | 54.40253 | 6.37441 | 35948 ft | 428 kts | 248° |
| 2026-05-03 21:23 | 54.38159 | 6.27880 | 35930 ft | 428 kts | 248° |
| 2026-05-03 21:24 | 54.36060 | 6.18328 | 35931 ft | 428 kts | 247° |
| 2026-05-03 21:24 | 54.33952 | 6.08782 | 35923 ft | 428 kts | 247° |
| 2026-05-03 21:25 | 54.31835 | 5.99225 | 35928 ft | 429 kts | 247° |
| 2026-05-03 21:25 | 54.29707 | 5.89689 | 35937 ft | 429 kts | 247° |
| 2026-05-03 21:26 | 54.27574 | 5.80159 | 35939 ft | 429 kts | 247° |
| 2026-05-03 21:26 | 54.25429 | 5.70631 | 35942 ft | 429 kts | 247° |
| 2026-05-03 21:27 | 54.23282 | 5.61121 | 35938 ft | 429 kts | 247° |
| 2026-05-03 21:27 | 54.21148 | 5.51699 | 35940 ft | 429 kts | 247° |
| 2026-05-03 21:28 | 54.18983 | 5.42212 | 35941 ft | 429 kts | 247° |
| 2026-05-03 21:28 | 54.16810 | 5.32745 | 35942 ft | 429 kts | 247° |
| 2026-05-03 21:29 | 54.14629 | 5.23270 | 35946 ft | 429 kts | 247° |
| 2026-05-03 21:29 | 54.12442 | 5.13810 | 35932 ft | 429 kts | 247° |
| 2026-05-03 21:30 | 54.10249 | 5.04345 | 35933 ft | 429 kts | 247° |
| 2026-05-03 21:30 | 54.08046 | 4.94898 | 35935 ft | 429 kts | 246° |
| 2026-05-03 21:31 | 54.05831 | 4.85457 | 35938 ft | 430 kts | 246° |
| 2026-05-03 21:31 | 54.03427 | 4.76164 | 35939 ft | 427 kts | 236° |
| 2026-05-03 21:32 | 53.99595 | 4.68487 | 35942 ft | 427 kts | 228° |
| 2026-05-03 21:32 | 53.95600 | 4.61018 | 35944 ft | 427 kts | 227° |
| 2026-05-03 21:33 | 53.91597 | 4.53588 | 35945 ft | 427 kts | 227° |
| 2026-05-03 21:33 | 53.87593 | 4.46147 | 35946 ft | 427 kts | 227° |
| 2026-05-03 21:34 | 53.83586 | 4.38704 | 35945 ft | 427 kts | 227° |
| 2026-05-03 21:34 | 53.79567 | 4.31272 | 35940 ft | 427 kts | 227° |
| 2026-05-03 21:35 | 53.75573 | 4.23914 | 35958 ft | 427 kts | 227° |
| 2026-05-03 21:35 | 53.71554 | 4.16521 | 35960 ft | 427 kts | 227° |
| 2026-05-03 21:36 | 53.67526 | 4.09140 | 35958 ft | 428 kts | 227° |
| 2026-05-03 21:36 | 53.63489 | 4.01764 | 35944 ft | 428 kts | 227° |
| 2026-05-03 21:37 | 53.59449 | 3.94410 | 35950 ft | 428 kts | 227° |
| 2026-05-03 21:37 | 53.55400 | 3.87061 | 35931 ft | 429 kts | 227° |
| 2026-05-03 21:38 | 53.51342 | 3.79697 | 35924 ft | 431 kts | 227° |
| 2026-05-03 21:38 | 53.47257 | 3.72318 | 35936 ft | 432 kts | 227° |
| 2026-05-03 21:39 | 53.43150 | 3.64930 | 35951 ft | 433 kts | 226° |
| 2026-05-03 21:39 | 53.39036 | 3.57555 | 35967 ft | 434 kts | 226° |
| 2026-05-03 21:40 | 53.34909 | 3.50180 | 35962 ft | 434 kts | 226° |
| 2026-05-03 21:40 | 53.30768 | 3.42797 | 35955 ft | 435 kts | 226° |
| 2026-05-03 21:41 | 53.26627 | 3.35422 | 35951 ft | 435 kts | 226° |
| 2026-05-03 21:41 | 53.22473 | 3.28052 | 35952 ft | 436 kts | 226° |
| 2026-05-03 21:42 | 53.18312 | 3.20713 | 35936 ft | 436 kts | 226° |
| 2026-05-03 21:42 | 53.14147 | 3.13470 | 35734 ft | 432 kts | 223° |
| 2026-05-03 21:43 | 53.11808 | 3.10346 | 35215 ft | 430 kts | 214° |
| 2026-05-03 21:43 | 53.09210 | 3.07881 | 34803 ft | 432 kts | 207° |
| 2026-05-03 21:43 | 53.06527 | 3.05640 | 34399 ft | 432 kts | 207° |
| 2026-05-03 21:43 | 53.03847 | 3.03394 | 34021 ft | 431 kts | 207° |
| 2026-05-03 21:44 | 53.01171 | 3.01145 | 33580 ft | 430 kts | 207° |
| 2026-05-03 21:44 | 52.99401 | 2.99659 | 33268 ft | 430 kts | 207° |
| 2026-05-03 21:44 | 52.96694 | 2.97385 | 32792 ft | 430 kts | 207° |
| 2026-05-03 21:44 | 52.94120 | 2.94872 | 32308 ft | 430 kts | 216° |
| 2026-05-03 21:45 | 52.91830 | 2.91668 | 31888 ft | 431 kts | 222° |
| 2026-05-03 21:45 | 52.89648 | 2.88363 | 31453 ft | 431 kts | 222° |
| 2026-05-03 21:45 | 52.87430 | 2.85019 | 31022 ft | 431 kts | 222° |
| 2026-05-03 21:45 | 52.85208 | 2.81681 | 30592 ft | 432 kts | 222° |
| 2026-05-03 21:46 | 52.82954 | 2.78303 | 30165 ft | 432 kts | 222° |
| 2026-05-03 21:46 | 52.80754 | 2.75012 | 29718 ft | 432 kts | 222° |
| 2026-05-03 21:46 | 52.78542 | 2.71703 | 29232 ft | 426 kts | 222° |
| 2026-05-03 21:46 | 52.76369 | 2.68452 | 28764 ft | 418 kts | 222° |
| 2026-05-03 21:47 | 52.74225 | 2.65249 | 28283 ft | 414 kts | 222° |
| 2026-05-03 21:47 | 52.72097 | 2.62068 | 27809 ft | 411 kts | 222° |
| 2026-05-03 21:47 | 52.69976 | 2.58910 | 27355 ft | 409 kts | 222° |
| 2026-05-03 21:47 | 52.67862 | 2.55773 | 26906 ft | 407 kts | 222° |
| 2026-05-03 21:48 | 52.65762 | 2.52663 | 26467 ft | 405 kts | 222° |
| 2026-05-03 21:48 | 52.63673 | 2.49572 | 26062 ft | 403 kts | 222° |
| 2026-05-03 21:48 | 52.61590 | 2.46490 | 25894 ft | 401 kts | 222° |
| 2026-05-03 21:48 | 52.59536 | 2.43448 | 25472 ft | 396 kts | 223° |
| 2026-05-03 21:49 | 52.57747 | 2.40040 | 24845 ft | 393 kts | 236° |
| 2026-05-03 21:49 | 52.56294 | 2.36248 | 24194 ft | 391 kts | 237° |
| 2026-05-03 21:49 | 52.54859 | 2.32464 | 23570 ft | 388 kts | 237° |
| 2026-05-03 21:49 | 52.53437 | 2.28702 | 22877 ft | 386 kts | 238° |
| 2026-05-03 21:50 | 52.52031 | 2.24976 | 22228 ft | 383 kts | 238° |
| 2026-05-03 21:50 | 52.50629 | 2.21257 | 21940 ft | 383 kts | 237° |
| 2026-05-03 21:50 | 52.49224 | 2.17542 | 21902 ft | 384 kts | 238° |
| 2026-05-03 21:50 | 52.47811 | 2.13819 | 21914 ft | 385 kts | 237° |
| 2026-05-03 21:51 | 52.46395 | 2.10094 | 21918 ft | 385 kts | 237° |
| 2026-05-03 21:51 | 52.44978 | 2.06367 | 21916 ft | 385 kts | 237° |
| 2026-05-03 21:51 | 52.43555 | 2.02633 | 21918 ft | 385 kts | 237° |
| 2026-05-03 21:51 | 52.42130 | 1.98911 | 21918 ft | 385 kts | 237° |
| 2026-05-03 21:52 | 52.40704 | 1.95197 | 21924 ft | 385 kts | 237° |
| 2026-05-03 21:52 | 52.39278 | 1.91485 | 21858 ft | 383 kts | 237° |
| 2026-05-03 21:52 | 52.37867 | 1.87807 | 21282 ft | 380 kts | 237° |
| 2026-05-03 21:52 | 52.36485 | 1.84202 | 20703 ft | 378 kts | 237° |
| 2026-05-03 21:53 | 52.35090 | 1.80574 | 20152 ft | 376 kts | 237° |
| 2026-05-03 21:53 | 52.33701 | 1.76971 | 19916 ft | 376 kts | 237° |
| 2026-05-03 21:53 | 52.32285 | 1.73302 | 19907 ft | 377 kts | 237° |
| 2026-05-03 21:53 | 52.30883 | 1.69678 | 19913 ft | 377 kts | 237° |
| 2026-05-03 21:54 | 52.29499 | 1.66108 | 19914 ft | 377 kts | 237° |
| 2026-05-03 21:54 | 52.28101 | 1.62505 | 19679 ft | 374 kts | 237° |
| 2026-05-03 21:54 | 52.26714 | 1.58931 | 19126 ft | 372 kts | 237° |
| 2026-05-03 21:54 | 52.25312 | 1.55328 | 18570 ft | 370 kts | 236° |
| 2026-05-03 21:55 | 52.23937 | 1.51793 | 18010 ft | 368 kts | 236° |
| 2026-05-03 21:55 | 52.22568 | 1.48278 | 17416 ft | 365 kts | 236° |
| 2026-05-03 21:55 | 52.21208 | 1.44800 | 16989 ft | 362 kts | 237° |
| 2026-05-03 21:55 | 52.19844 | 1.41324 | 16889 ft | 364 kts | 237° |
| 2026-05-03 21:56 | 52.18478 | 1.37849 | 16725 ft | 362 kts | 237° |
| 2026-05-03 21:56 | 52.17131 | 1.34422 | 16108 ft | 360 kts | 237° |
| 2026-05-03 21:56 | 52.15789 | 1.31002 | 15512 ft | 357 kts | 237° |
| 2026-05-03 21:56 | 52.14456 | 1.27608 | 14940 ft | 354 kts | 237° |
| 2026-05-03 21:57 | 52.13134 | 1.24244 | 14381 ft | 352 kts | 237° |
| 2026-05-03 21:57 | 52.11922 | 1.20799 | 13830 ft | 350 kts | 246° |
| 2026-05-03 21:57 | 52.11203 | 1.17038 | 13230 ft | 348 kts | 254° |
| 2026-05-03 21:57 | 52.10588 | 1.13303 | 12972 ft | 331 kts | 254° |
| 2026-05-03 21:58 | 52.10018 | 1.09832 | 12838 ft | 304 kts | 254° |
| 2026-05-03 21:58 | 52.09486 | 1.06601 | 12460 ft | 290 kts | 254° |
| 2026-05-03 21:58 | 52.08968 | 1.03478 | 11864 ft | 285 kts | 253° |
| 2026-05-03 21:58 | 52.08458 | 1.00424 | 11250 ft | 282 kts | 253° |
| 2026-05-03 21:59 | 52.07938 | 0.97324 | 10614 ft | 280 kts | 253° |
| 2026-05-03 21:59 | 52.07426 | 0.94289 | 9998 ft | 278 kts | 253° |
| 2026-05-03 21:59 | 52.06917 | 0.91267 | 9350 ft | 276 kts | 254° |
| 2026-05-03 21:59 | 52.06417 | 0.88285 | 8974 ft | 273 kts | 254° |
| 2026-05-03 22:00 | 52.05912 | 0.85282 | 8909 ft | 276 kts | 254° |
| 2026-05-03 22:00 | 52.05404 | 0.82271 | 8917 ft | 276 kts | 254° |
| 2026-05-03 22:00 | 52.04902 | 0.79300 | 8921 ft | 276 kts | 254° |
| 2026-05-03 22:00 | 52.04386 | 0.76249 | 8913 ft | 277 kts | 254° |
| 2026-05-03 22:01 | 52.03877 | 0.73246 | 8712 ft | 274 kts | 253° |
| 2026-05-03 22:01 | 52.03378 | 0.70313 | 8579 ft | 265 kts | 253° |
| 2026-05-03 22:01 | 52.02895 | 0.67482 | 8456 ft | 256 kts | 253° |
| 2026-05-03 22:01 | 52.02428 | 0.64746 | 8328 ft | 248 kts | 253° |
| 2026-05-03 22:02 | 52.02199 | 0.62019 | 8090 ft | 242 kts | 268° |
| 2026-05-03 22:02 | 52.02247 | 0.59285 | 7781 ft | 242 kts | 271° |
| 2026-05-03 22:02 | 52.02331 | 0.56560 | 7486 ft | 241 kts | 271° |
| 2026-05-03 22:02 | 52.02417 | 0.53904 | 7203 ft | 241 kts | 271° |
| 2026-05-03 22:03 | 52.02504 | 0.51195 | 6912 ft | 240 kts | 271° |
| 2026-05-03 22:03 | 52.02592 | 0.48459 | 6614 ft | 239 kts | 271° |
| 2026-05-03 22:03 | 52.02676 | 0.45764 | 6295 ft | 239 kts | 271° |
| 2026-05-03 22:03 | 52.02757 | 0.43071 | 6036 ft | 236 kts | 271° |
| 2026-05-03 22:04 | 52.02837 | 0.40395 | 5991 ft | 238 kts | 271° |
| 2026-05-03 22:04 | 52.02916 | 0.37735 | 5997 ft | 239 kts | 271° |
| 2026-05-03 22:04 | 52.02908 | 0.35011 | 6001 ft | 238 kts | 257° |
| 2026-05-03 22:04 | 52.02231 | 0.32598 | 5999 ft | 236 kts | 234° |
| 2026-05-03 22:05 | 52.01280 | 0.30475 | 6002 ft | 236 kts | 232° |
| 2026-05-03 22:05 | 52.00267 | 0.28332 | 6005 ft | 236 kts | 231° |
| 2026-05-03 22:05 | 51.99290 | 0.26281 | 6002 ft | 227 kts | 231° |
| 2026-05-03 22:05 | 51.98359 | 0.24328 | 6001 ft | 211 kts | 231° |
| 2026-05-03 22:06 | 51.97479 | 0.22484 | 6009 ft | 205 kts | 231° |
| 2026-05-03 22:06 | 51.96598 | 0.20637 | 6006 ft | 204 kts | 231° |
| 2026-05-03 22:06 | 51.95729 | 0.18817 | 6009 ft | 204 kts | 231° |
| 2026-05-03 22:06 | 51.94862 | 0.17001 | 6008 ft | 204 kts | 231° |
| 2026-05-03 22:07 | 51.93990 | 0.15174 | 6008 ft | 204 kts | 231° |
| 2026-05-03 22:07 | 51.93133 | 0.13380 | 6007 ft | 204 kts | 231° |
| 2026-05-03 22:07 | 51.92290 | 0.11612 | 5755 ft | 202 kts | 231° |
| 2026-05-03 22:07 | 51.91419 | 0.09791 | 5435 ft | 202 kts | 231° |
| 2026-05-03 22:08 | 51.90561 | 0.07996 | 5122 ft | 201 kts | 231° |
| 2026-05-03 22:08 | 51.89717 | 0.06237 | 4828 ft | 201 kts | 230° |
| 2026-05-03 22:08 | 51.88728 | 0.04617 | 4514 ft | 199 kts | 214° |
| 2026-05-03 22:08 | 51.87529 | 0.03568 | 4159 ft | 201 kts | 203° |
| 2026-05-03 22:09 | 51.86207 | 0.02676 | 3610 ft | 210 kts | 201° |
| 2026-05-03 22:09 | 51.84846 | 0.01801 | 3082 ft | 212 kts | 201° |
| 2026-05-03 22:09 | 51.83460 | 0.00926 | 2547 ft | 215 kts | 201° |
| 2026-05-03 22:10 | 51.80669 | -0.00639 | 1981 ft | 205 kts | 183° |
| 2026-05-03 22:10 | 51.79319 | -0.00103 | 1997 ft | 202 kts | 146° |
| 2026-05-03 22:10 | 51.78279 | 0.01407 | 1998 ft | 202 kts | 130° |
| 2026-05-03 22:10 | 51.77707 | 0.03436 | 2002 ft | 202 kts | 99° |
| 2026-05-03 22:11 | 51.77699 | 0.05658 | 2025 ft | 191 kts | 78° |
| 2026-05-03 22:11 | 51.78116 | 0.07548 | 2016 ft | 174 kts | 59° |
| 2026-05-03 22:11 | 51.78866 | 0.09083 | 2010 ft | 177 kts | 41° |
| 2026-05-03 22:11 | 51.79779 | 0.10441 | 2006 ft | 179 kts | 41° |
| 2026-05-03 22:12 | 51.80694 | 0.11805 | 2006 ft | 179 kts | 41° |
| 2026-05-03 22:12 | 51.81604 | 0.13162 | 1925 ft | 174 kts | 41° |
| 2026-05-03 22:12 | 51.82451 | 0.14428 | 1768 ft | 159 kts | 41° |
| 2026-05-03 22:12 | 51.83221 | 0.15579 | 1605 ft | 144 kts | 41° |
| 2026-05-03 22:13 | 51.83952 | 0.16671 | 1404 ft | 139 kts | 41° |
| 2026-05-03 22:13 | 51.84657 | 0.17724 | 1211 ft | 137 kts | 41° |
| 2026-05-03 22:13 | 51.85348 | 0.18758 | 1024 ft | 137 kts | 41° |
| 2026-05-03 22:13 | 51.86055 | 0.19816 | 836 ft | 136 kts | 41° |
| 2026-05-03 22:14 | 51.86748 | 0.20853 | 649 ft | 136 kts | 42° |
| 2026-05-03 22:14 | 51.87440 | 0.21889 | 462 ft | 135 kts | 42° |
| 2026-05-03 22:14 | 51.88126 | 0.22883 | 355 ft | 129 kts | 41° |
| 2026-05-03 22:14 | 51.88670 | 0.23733 | 339 ft | 85 kts | 43° |
| 2026-05-03 22:15 | 51.88979 | 0.24197 | 346 ft | 36 kts | 42° |
| 2026-05-03 22:15 | 51.89045 | 0.24335 | 345 ft | 10 kts | 64° |
| 2026-05-03 22:15 | 51.89095 | 0.24516 | 352 ft | 18 kts | 67° |
| 2026-05-03 22:15 | 51.89144 | 0.24710 | 345 ft | 18 kts | 67° |
| 2026-05-03 22:16 | 51.89171 | 0.24840 | 344 ft | 7 kts | 94° |
| 2026-05-03 22:16 | 51.89157 | 0.24883 | 353 ft | 3 kts | 117° |
| 2026-05-03 22:16 | 51.89156 | 0.24889 | 354 ft | 2 kts | 114° |
| 2026-05-03 22:16 | 51.89158 | 0.24964 | 349 ft | 5 kts | 33° |
| 2026-05-03 22:17 | 51.89197 | 0.25009 | 352 ft | 10 kts | 49° |
| 2026-05-03 22:17 | 51.89238 | 0.25136 | 352 ft | 15 kts | 87° |
| 2026-05-03 22:17 | 51.89178 | 0.25277 | 349 ft | 17 kts | 134° |
| 2026-05-03 22:17 | 51.89138 | 0.25347 | 352 ft | 3 kts | 130° |
| 2026-05-03 22:18 | 51.89121 | 0.25377 | 356 ft | 5 kts | 138° |
| 2026-05-03 22:18 | 51.89084 | 0.25377 | 349 ft | 7 kts | 211° |
| 2026-05-03 22:18 | 51.89058 | 0.25335 | 352 ft | 0 kts | 223° |
| 2026-05-03 22:18 | 51.89057 | 0.25333 | 352 ft | 0 kts | 223° |